createdAt,value
2023-02-28T00:00:13.107Z,7.27
2023-02-28T00:02:41.310Z,7.20
2023-02-28T00:05:09.194Z,8.47
2023-02-28T00:07:36.565Z,8.30
2023-02-28T00:10:04.196Z,8.93
2023-02-28T00:12:31.033Z,8.00
2023-02-28T00:14:57.396Z,7.83
2023-02-28T00:17:24.624Z,9.27
2023-02-28T00:19:52.210Z,8.07
2023-02-28T00:22:21.063Z,8.27
2023-02-28T00:24:48.334Z,8.63
2023-02-28T00:27:15.746Z,6.10
2023-02-28T00:29:42.524Z,8.13
2023-02-28T00:32:08.969Z,8.90
2023-02-28T00:34:38.813Z,8.33
2023-02-28T00:37:07.444Z,7.53
2023-02-28T00:39:38.362Z,9.37
2023-02-28T00:42:05.296Z,8.33
2023-02-28T00:44:31.904Z,8.53
2023-02-28T00:46:59.862Z,9.83
2023-02-28T00:49:28.499Z,10.40
2023-02-28T00:51:56.362Z,9.33
2023-02-28T00:54:24.342Z,8.73
2023-02-28T00:56:51.428Z,9.27
2023-02-28T00:59:18.621Z,9.90
2023-02-28T01:01:46.674Z,8.67
2023-02-28T01:04:15.058Z,8.70
2023-02-28T01:06:41.965Z,10.17
2023-02-28T01:09:08.860Z,9.20
2023-02-28T01:11:36.173Z,10.13
2023-02-28T01:14:03.379Z,11.90
2023-02-28T01:16:29.792Z,10.17
2023-02-28T01:18:56.546Z,9.23
2023-02-28T01:21:23.703Z,10.70
2023-02-28T01:23:50.705Z,9.70
2023-02-28T01:26:22.063Z,9.40
2023-02-28T01:28:50.479Z,9.00
2023-02-28T01:31:19.152Z,9.73
2023-02-28T01:33:46.545Z,9.00
2023-02-28T01:36:17.078Z,8.07
2023-02-28T01:38:44.818Z,10.57
2023-02-28T01:41:21.688Z,10.30
2023-02-28T01:43:48.234Z,10.53
2023-02-28T01:46:15.716Z,10.13
2023-02-28T01:48:48.113Z,10.27
2023-02-28T01:51:24.401Z,10.63
2023-02-28T01:53:56.710Z,9.73
2023-02-28T01:56:28.587Z,9.40
2023-02-28T01:58:56.221Z,11.30
2023-02-28T02:01:24.425Z,11.00
2023-02-28T02:04:00.316Z,10.77
2023-02-28T02:06:31.780Z,9.67
2023-02-28T02:08:58.438Z,8.93
2023-02-28T02:11:26.720Z,9.97
2023-02-28T02:14:05.333Z,10.40
2023-02-28T02:16:52.983Z,10.43
2023-02-28T02:19:47.680Z,9.40
2023-02-28T02:22:51.294Z,12.93
2023-02-28T02:25:32.473Z,11.97
2023-02-28T02:28:17.406Z,11.07
2023-02-28T02:31:13.469Z,11.87
2023-02-28T02:34:01.027Z,9.50
2023-02-28T02:36:39.929Z,11.47
2023-02-28T02:39:28.762Z,11.40
2023-02-28T02:41:57.682Z,12.27
2023-02-28T02:44:45.607Z,10.80
2023-02-28T02:47:16.078Z,11.73
2023-02-28T02:49:48.659Z,12.03
2023-02-28T02:52:19.533Z,10.67
2023-02-28T02:54:49.047Z,10.47
2023-02-28T02:57:25.214Z,11.40
2023-02-28T02:59:56.383Z,10.63
2023-02-28T03:02:24.444Z,11.00
2023-02-28T03:05:01.785Z,10.00
2023-02-28T03:07:28.895Z,12.70
2023-02-28T03:09:58.473Z,11.97
2023-02-28T03:12:34.002Z,10.83
2023-02-28T03:15:13.789Z,12.07
2023-02-28T03:18:02.421Z,10.33
2023-02-28T03:20:39.818Z,13.27
2023-02-28T03:23:17.492Z,11.70
2023-02-28T03:25:49.976Z,9.47
2023-02-28T03:28:37.971Z,17.37
2023-02-28T03:31:13.990Z,12.03
2023-02-28T03:33:46.950Z,11.83
2023-02-28T03:36:19.193Z,12.40
2023-02-28T03:38:52.096Z,13.00
2023-02-28T03:41:23.838Z,14.63
2023-02-28T03:44:00.593Z,13.87
2023-02-28T03:46:32.279Z,13.10
2023-02-28T03:49:06.037Z,11.80
2023-02-28T03:51:33.777Z,13.73
2023-02-28T03:54:08.294Z,13.53
2023-02-28T03:56:50.264Z,12.87
2023-02-28T03:59:29.365Z,12.30
2023-02-28T04:01:56.288Z,14.50
2023-02-28T04:04:23.610Z,11.97
2023-02-28T04:06:51.908Z,11.43
2023-02-28T04:09:18.397Z,11.10
2023-02-28T04:11:53.178Z,13.63
2023-02-28T04:14:19.936Z,12.83
2023-02-28T04:16:46.825Z,12.50
2023-02-28T04:19:15.349Z,13.10
2023-02-28T04:21:50.947Z,13.30
2023-02-28T04:24:23.718Z,13.50
2023-02-28T04:26:52.660Z,14.50
2023-02-28T04:29:28.281Z,17.30
2023-02-28T04:31:55.758Z,12.27
2023-02-28T04:34:22.319Z,14.53
2023-02-28T04:37:10.371Z,12.63
2023-02-28T04:39:38.766Z,15.57
2023-02-28T04:42:05.332Z,13.77
2023-02-28T04:44:32.413Z,14.80
2023-02-28T04:46:58.815Z,12.30
2023-02-28T04:49:25.212Z,14.53
2023-02-28T04:51:51.819Z,12.20
2023-02-28T04:54:18.994Z,13.17
2023-02-28T04:56:45.820Z,13.97
2023-02-28T04:59:12.183Z,14.67
2023-02-28T05:01:39.219Z,14.20
2023-02-28T05:04:05.750Z,13.30
2023-02-28T05:06:34.105Z,15.40
2023-02-28T05:09:00.778Z,16.60
2023-02-28T05:11:35.858Z,14.63
2023-02-28T05:14:04.783Z,15.63
2023-02-28T05:16:32.559Z,14.97
2023-02-28T05:18:59.230Z,15.33
2023-02-28T05:21:35.684Z,14.87
2023-02-28T05:24:06.009Z,14.93
2023-02-28T05:26:36.720Z,15.17
2023-02-28T05:29:03.384Z,14.70
2023-02-28T05:31:30.100Z,13.80
2023-02-28T05:33:56.685Z,14.60
2023-02-28T05:36:23.263Z,15.07
2023-02-28T05:38:51.225Z,14.93
2023-02-28T05:41:20.224Z,16.00
2023-02-28T05:43:47.687Z,14.37
2023-02-28T05:46:14.494Z,14.10
2023-02-28T05:48:42.385Z,13.77
2023-02-28T05:51:09.894Z,13.07
2023-02-28T05:53:37.040Z,14.20
2023-02-28T05:56:04.669Z,14.97
2023-02-28T05:58:32.037Z,16.13
2023-02-28T06:01:20.071Z,13.70
2023-02-28T06:03:46.894Z,15.20
2023-02-28T06:06:13.313Z,15.73
2023-02-28T06:08:40.129Z,17.47
2023-02-28T06:11:07.559Z,13.23
2023-02-28T06:13:33.954Z,15.07
2023-02-28T06:16:03.456Z,13.40
2023-02-28T06:18:30.047Z,15.80
2023-02-28T06:20:56.803Z,17.30
2023-02-28T06:23:23.301Z,14.73
2023-02-28T06:25:50.422Z,14.87
2023-02-28T06:28:17.460Z,13.37
2023-02-28T06:30:46.386Z,15.30
2023-02-28T06:33:12.985Z,13.83
2023-02-28T06:35:39.402Z,15.00
2023-02-28T06:38:05.797Z,14.53
2023-02-28T06:40:35.047Z,14.67
2023-02-28T06:43:01.529Z,15.70
2023-02-28T06:45:27.895Z,14.37
2023-02-28T06:47:54.551Z,14.97
2023-02-28T06:50:21.441Z,14.37
2023-02-28T06:52:48.371Z,18.17
2023-02-28T06:55:14.880Z,14.30
2023-02-28T06:57:41.283Z,15.40
2023-02-28T07:00:09.757Z,18.40
2023-02-28T07:02:37.393Z,12.77
2023-02-28T07:05:04.957Z,15.07
2023-02-28T07:07:31.458Z,14.13
2023-02-28T07:09:57.839Z,12.67
2023-02-28T07:12:24.278Z,15.10
2023-02-28T07:14:50.927Z,15.43
2023-02-28T07:17:17.308Z,12.97
2023-02-28T07:19:44.101Z,15.73
2023-02-28T07:22:10.628Z,13.03
2023-02-28T07:24:37.203Z,15.40
2023-02-28T07:27:03.883Z,13.77
2023-02-28T07:29:30.711Z,13.70
2023-02-28T07:31:57.327Z,13.90
2023-02-28T07:34:24.253Z,14.03
2023-02-28T07:36:54.425Z,15.83
2023-02-28T07:39:22.196Z,12.27
2023-02-28T07:41:48.717Z,15.50
2023-02-28T07:44:15.644Z,12.87
2023-02-28T07:46:42.149Z,13.50
2023-02-28T07:49:08.712Z,14.67
2023-02-28T07:51:35.082Z,11.37
2023-02-28T07:54:02.011Z,13.60
2023-02-28T07:56:28.785Z,13.90
2023-02-28T07:58:55.483Z,15.67
2023-02-28T08:01:22.756Z,14.77
2023-02-28T08:03:49.551Z,14.53
2023-02-28T08:06:18.763Z,17.33
2023-02-28T08:08:45.450Z,15.53
2023-02-28T08:11:11.844Z,16.60
2023-02-28T08:13:38.217Z,16.37
2023-02-28T08:16:05.203Z,20.67
2023-02-28T08:18:33.201Z,15.53
2023-02-28T08:21:00.188Z,15.33
2023-02-28T08:23:26.800Z,14.13
2023-02-28T08:25:57.203Z,14.37
2023-02-28T08:28:26.771Z,12.40
2023-02-28T08:30:53.859Z,18.80
2023-02-28T08:33:20.269Z,13.63
2023-02-28T08:35:46.712Z,13.83
2023-02-28T08:38:13.117Z,17.13
2023-02-28T08:40:39.560Z,14.47
2023-02-28T08:43:05.965Z,14.93
2023-02-28T08:45:32.412Z,17.30
2023-02-28T08:47:58.836Z,16.20
2023-02-28T08:50:25.620Z,15.60
2023-02-28T08:52:52.006Z,16.47
2023-02-28T08:55:18.398Z,14.93
2023-02-28T08:57:44.819Z,18.63
2023-02-28T09:00:14.454Z,16.97
2023-02-28T09:02:43.649Z,15.53
2023-02-28T09:05:10.520Z,14.53
2023-02-28T09:07:36.956Z,15.93
2023-02-28T09:10:03.530Z,17.50
2023-02-28T09:12:35.511Z,15.50
2023-02-28T09:15:02.838Z,15.90
2023-02-28T09:17:30.636Z,14.87
2023-02-28T09:19:57.991Z,17.80
2023-02-28T09:22:24.862Z,15.00
2023-02-28T09:24:51.271Z,14.60
2023-02-28T09:27:18.129Z,15.20
2023-02-28T09:29:44.606Z,21.23
2023-02-28T09:32:11.452Z,16.97
2023-02-28T09:34:38.490Z,17.67
2023-02-28T09:37:05.184Z,15.33
2023-02-28T09:39:32.607Z,14.97
2023-02-28T09:41:59.676Z,16.73
2023-02-28T09:44:32.611Z,25.10
2023-02-28T09:47:06.115Z,14.83
2023-02-28T09:49:43.392Z,15.17
2023-02-28T09:52:14.657Z,16.00
2023-02-28T09:54:41.493Z,17.90
2023-02-28T09:57:09.650Z,17.17
2023-02-28T10:00:19.462Z,15.30
2023-02-28T10:03:13.397Z,12.63
2023-02-28T10:05:45.264Z,14.47
2023-02-28T10:08:19.364Z,14.23
2023-02-28T10:10:49.419Z,15.47
2023-02-28T10:13:25.197Z,18.37
2023-02-28T10:15:57.306Z,17.37
2023-02-28T10:18:31.824Z,15.37
2023-02-28T10:20:59.444Z,12.77
2023-02-28T10:23:37.004Z,16.43
2023-02-28T10:26:13.914Z,15.00
2023-02-28T10:28:41.114Z,15.60
2023-02-28T10:31:12.621Z,15.63
2023-02-28T10:33:39.025Z,14.90
2023-02-28T10:36:07.772Z,16.50
2023-02-28T10:38:40.536Z,18.27
2023-02-28T10:41:09.593Z,15.30
2023-02-28T10:43:37.519Z,17.63
2023-02-28T10:46:10.702Z,13.67
2023-02-28T10:48:45.705Z,15.47
2023-02-28T10:51:17.267Z,16.27
2023-02-28T10:53:59.649Z,16.47
2023-02-28T10:56:27.712Z,15.93
2023-02-28T10:59:14.953Z,13.00
2023-02-28T11:01:53.794Z,15.00
2023-02-28T11:04:23.389Z,15.80
2023-02-28T11:07:07.988Z,15.27
2023-02-28T11:09:39.580Z,15.17
2023-02-28T11:12:10.245Z,14.47
2023-02-28T11:14:53.076Z,16.57
2023-02-28T11:17:27.007Z,16.53
2023-02-28T11:20:00.046Z,17.57
2023-02-28T11:22:29.777Z,13.60
2023-02-28T11:25:00.399Z,14.17
2023-02-28T11:27:41.039Z,16.77
2023-02-28T11:30:24.556Z,13.27
2023-02-28T11:32:51.290Z,17.13
2023-02-28T11:35:28.059Z,27.33
2023-02-28T11:37:54.818Z,17.47
2023-02-28T11:40:39.632Z,16.03
2023-02-28T11:43:22.474Z,14.97
2023-02-28T11:45:53.829Z,18.00
2023-02-28T11:48:32.012Z,19.40
2023-02-28T11:51:09.504Z,15.50
2023-02-28T11:53:51.141Z,15.30
2023-02-28T11:56:45.422Z,18.53
2023-02-28T11:59:36.548Z,19.40
2023-02-28T12:02:25.408Z,15.27
2023-02-28T12:05:17.350Z,14.93
2023-02-28T12:07:53.107Z,14.60
2023-02-28T12:10:29.781Z,16.77
2023-02-28T12:13:25.020Z,16.37
2023-02-28T12:16:19.500Z,13.67
2023-02-28T12:19:09.444Z,16.83
2023-02-28T12:22:23.367Z,16.27
2023-02-28T12:25:08.226Z,15.00
2023-02-28T12:27:39.778Z,15.90
2023-02-28T12:30:25.650Z,14.90
2023-02-28T12:32:57.935Z,18.70
2023-02-28T12:35:37.869Z,26.80
2023-02-28T12:38:25.533Z,17.73
2023-02-28T12:40:57.586Z,14.33
2023-02-28T12:43:31.250Z,15.10
2023-02-28T12:46:02.300Z,17.20
2023-02-28T12:48:38.766Z,16.37
2023-02-28T12:51:08.373Z,16.43
2023-02-28T12:53:59.824Z,14.73
2023-02-28T12:56:34.449Z,15.70
2023-02-28T12:59:42.789Z,15.83
2023-02-28T13:02:37.325Z,17.73
2023-02-28T13:05:41.272Z,18.00
2023-02-28T13:08:41.898Z,16.47
2023-02-28T13:11:21.031Z,16.33
2023-02-28T13:13:48.066Z,16.40
2023-02-28T13:16:14.473Z,13.90
2023-02-28T13:18:46.657Z,13.83
2023-02-28T13:21:31.054Z,17.40
2023-02-28T13:24:01.657Z,15.10
2023-02-28T13:26:31.060Z,15.20
2023-02-28T13:29:16.935Z,16.63
2023-02-28T13:32:25.728Z,14.70
2023-02-28T13:34:52.451Z,14.23
2023-02-28T13:37:18.776Z,14.90
2023-02-28T13:39:45.096Z,16.73
2023-02-28T13:42:31.719Z,16.33
2023-02-28T13:45:04.350Z,17.53
2023-02-28T13:47:39.927Z,15.37
2023-02-28T13:50:38.932Z,14.73
2023-02-28T13:53:27.597Z,18.90
2023-02-28T13:56:16.655Z,16.77
2023-02-28T13:58:52.328Z,15.20
2023-02-28T14:01:52.582Z,14.97
2023-02-28T14:04:51.288Z,12.70
2023-02-28T14:07:45.858Z,14.37
2023-02-28T14:10:25.393Z,15.93
2023-02-28T14:12:58.599Z,19.70
2023-02-28T14:15:34.241Z,16.83
2023-02-28T14:18:06.552Z,13.87
2023-02-28T14:20:35.013Z,14.73
2023-02-28T14:23:18.310Z,13.93
2023-02-28T14:26:06.013Z,14.60
2023-02-28T14:28:47.744Z,16.10
2023-02-28T14:31:20.638Z,16.30
2023-02-28T14:33:59.860Z,16.37
2023-02-28T14:36:32.731Z,15.17
2023-02-28T14:39:05.500Z,14.77
2023-02-28T14:41:36.303Z,19.07
2023-02-28T14:44:13.780Z,17.83
2023-02-28T14:46:42.618Z,16.93
2023-02-28T14:49:22.707Z,13.83
2023-02-28T14:52:02.279Z,15.87
2023-02-28T14:54:29.911Z,14.87
2023-02-28T14:56:56.576Z,14.20
2023-02-28T14:59:32.926Z,15.40
2023-02-28T15:02:23.210Z,15.37
2023-02-28T15:04:57.988Z,16.23
2023-02-28T15:07:29.523Z,15.47
2023-02-28T15:10:17.169Z,14.00
2023-02-28T15:12:52.117Z,13.33
2023-02-28T15:15:20.049Z,16.63
2023-02-28T15:17:51.101Z,17.37
2023-02-28T15:20:19.128Z,13.03
2023-02-28T15:22:48.139Z,16.23
2023-02-28T15:25:19.298Z,17.60
2023-02-28T15:27:50.464Z,15.70
2023-02-28T15:30:26.400Z,19.40
2023-02-28T15:33:24.267Z,18.37
2023-02-28T15:35:51.552Z,16.23
2023-02-28T15:38:24.543Z,17.83
2023-02-28T15:40:56.340Z,16.27
2023-02-28T15:43:37.451Z,17.23
2023-02-28T15:46:14.476Z,19.37
2023-02-28T15:48:51.954Z,18.67
2023-02-28T15:51:25.327Z,17.83
2023-02-28T15:53:59.810Z,19.17
2023-02-28T15:56:28.889Z,18.07
2023-02-28T15:59:04.043Z,15.33
2023-02-28T16:01:34.214Z,16.90
2023-02-28T16:04:20.931Z,19.07
2023-02-28T16:07:02.966Z,17.33
2023-02-28T16:09:33.056Z,17.60
2023-02-28T16:12:02.916Z,18.37
2023-02-28T16:14:31.705Z,18.47
2023-02-28T16:17:05.793Z,20.20
2023-02-28T16:19:33.885Z,18.10
2023-02-28T16:22:01.387Z,20.43
2023-02-28T16:24:28.074Z,22.00
2023-02-28T16:26:56.857Z,20.10
2023-02-28T16:29:30.618Z,19.17
2023-02-28T16:31:57.572Z,20.93
2023-02-28T16:34:24.781Z,18.77
2023-02-28T16:36:51.830Z,19.60
2023-02-28T16:39:19.729Z,21.23
2023-02-28T16:41:48.336Z,21.33
2023-02-28T16:44:25.469Z,22.57
2023-02-28T16:46:51.872Z,20.53
2023-02-28T16:49:18.286Z,20.87
2023-02-28T16:51:44.669Z,21.43
2023-02-28T16:54:11.157Z,21.50
2023-02-28T16:56:41.923Z,21.47
2023-02-28T16:59:10.967Z,20.40
2023-02-28T17:01:37.708Z,20.43
2023-02-28T17:04:04.267Z,22.13
2023-02-28T17:06:32.052Z,21.93
2023-02-28T17:09:00.152Z,21.00
2023-02-28T17:11:27.479Z,19.17
2023-02-28T17:13:57.219Z,22.20
2023-02-28T17:16:29.215Z,20.23
2023-02-28T17:18:59.824Z,24.33
2023-02-28T17:21:26.356Z,21.40
2023-02-28T17:23:52.780Z,19.80
2023-02-28T17:26:21.625Z,22.67
2023-02-28T17:28:49.305Z,24.13
2023-02-28T17:31:16.236Z,23.37
2023-02-28T17:33:42.741Z,24.40
2023-02-28T17:36:16.047Z,21.13
2023-02-28T17:38:42.722Z,22.47
2023-02-28T17:41:11.863Z,20.47
2023-02-28T17:43:38.803Z,22.13
2023-02-28T17:46:06.469Z,24.90
2023-02-28T17:48:34.211Z,20.83
2023-02-28T17:51:00.605Z,20.40
2023-02-28T17:53:28.105Z,23.77
2023-02-28T17:55:54.566Z,23.97
2023-02-28T17:58:20.990Z,22.43
2023-02-28T18:00:48.709Z,24.87
2023-02-28T18:03:15.220Z,24.87
2023-02-28T18:05:41.761Z,23.50
2023-02-28T18:08:11.424Z,23.43
2023-02-28T18:10:37.780Z,25.23
2023-02-28T18:13:04.678Z,25.13
2023-02-28T18:15:31.131Z,22.70
2023-02-28T18:17:57.637Z,25.33
2023-02-28T18:20:24.051Z,26.20
2023-02-28T18:22:50.532Z,24.27
2023-02-28T18:25:17.883Z,24.07
2023-02-28T18:27:54.241Z,26.00
2023-02-28T18:30:21.879Z,24.97
2023-02-28T18:32:48.753Z,23.67
2023-02-28T18:35:15.316Z,24.90
2023-02-28T18:37:41.998Z,23.93
2023-02-28T18:40:09.260Z,25.53
2023-02-28T18:42:35.955Z,24.33
2023-02-28T18:45:02.339Z,22.93
2023-02-28T18:47:29.022Z,25.33
2023-02-28T18:49:55.404Z,26.20
2023-02-28T18:52:21.788Z,27.20
2023-02-28T18:54:48.311Z,27.27
2023-02-28T18:57:15.230Z,26.23
2023-02-28T18:59:41.878Z,24.87
2023-02-28T19:02:09.020Z,24.47
2023-02-28T19:04:35.713Z,24.57
2023-02-28T19:07:02.874Z,25.70
2023-02-28T19:09:29.325Z,26.10
2023-02-28T19:11:55.710Z,24.50
2023-02-28T19:14:22.120Z,26.03
2023-02-28T19:16:50.122Z,25.23
2023-02-28T19:19:16.583Z,26.83
2023-02-28T19:21:42.979Z,25.20
2023-02-28T19:24:09.384Z,25.90
2023-02-28T19:26:35.926Z,23.20
2023-02-28T19:29:04.405Z,25.00
2023-02-28T19:31:31.137Z,24.43
2023-02-28T19:33:58.922Z,25.03
2023-02-28T19:36:25.483Z,22.60
2023-02-28T19:38:51.882Z,26.87
2023-02-28T19:41:18.765Z,23.40
2023-02-28T19:43:45.827Z,23.73
2023-02-28T19:46:12.650Z,29.60
2023-02-28T19:48:39.601Z,27.67
2023-02-28T19:51:09.472Z,24.23
2023-02-28T19:53:37.892Z,22.50
2023-02-28T19:56:04.747Z,28.67
2023-02-28T19:58:32.399Z,25.73
2023-02-28T20:01:01.262Z,23.47
2023-02-28T20:03:27.717Z,26.70
2023-02-28T20:06:09.876Z,26.93
2023-02-28T20:08:37.541Z,25.30
2023-02-28T20:11:15.577Z,25.03
2023-02-28T20:13:42.138Z,26.53
2023-02-28T20:16:11.132Z,27.43
2023-02-28T20:18:39.111Z,27.87
2023-02-28T20:21:08.983Z,27.47
2023-02-28T20:23:37.589Z,25.00
2023-02-28T20:26:04.365Z,27.67
2023-02-28T20:28:30.842Z,25.17
2023-02-28T20:30:57.573Z,30.20
2023-02-28T20:33:24.214Z,29.23
2023-02-28T20:35:52.706Z,27.17
2023-02-28T20:38:20.137Z,26.57
2023-02-28T20:40:46.967Z,30.90
2023-02-28T20:43:13.413Z,30.23
2023-02-28T20:45:40.271Z,27.67
2023-02-28T20:48:06.699Z,31.63
2023-02-28T20:50:33.089Z,28.40
2023-02-28T20:52:59.453Z,34.87
2023-02-28T20:55:25.869Z,31.07
2023-02-28T20:57:54.059Z,27.03
2023-02-28T21:00:22.373Z,29.50
2023-02-28T21:02:48.801Z,25.47
2023-02-28T21:05:15.559Z,29.83
2023-02-28T21:07:41.982Z,29.27
2023-02-28T21:10:09.685Z,30.17
2023-02-28T21:12:36.066Z,29.33
2023-02-28T21:15:02.530Z,27.83
2023-02-28T21:17:29.478Z,28.07
2023-02-28T21:19:55.894Z,27.70
2023-02-28T21:22:22.360Z,27.47
2023-02-28T21:24:48.741Z,24.77
2023-02-28T21:27:15.619Z,31.73
2023-02-28T21:29:42.344Z,33.50
2023-02-28T21:32:08.908Z,30.40
2023-02-28T21:34:35.312Z,28.93
2023-02-28T21:37:02.372Z,30.90
2023-02-28T21:39:30.307Z,31.17
2023-02-28T21:42:03.910Z,31.40
2023-02-28T21:44:32.175Z,29.40
2023-02-28T21:47:01.912Z,33.00
2023-02-28T21:49:29.410Z,31.30
2023-02-28T21:51:55.839Z,35.10
2023-02-28T21:54:22.658Z,29.13
2023-02-28T21:56:50.694Z,29.13
2023-02-28T21:59:17.756Z,28.73
2023-02-28T22:01:45.309Z,32.03
2023-02-28T22:04:21.126Z,27.50
2023-02-28T22:06:57.317Z,29.20
2023-02-28T22:09:24.023Z,30.20
2023-02-28T22:11:50.478Z,31.17
2023-02-28T22:14:17.324Z,31.57
2023-02-28T22:16:54.534Z,31.90
2023-02-28T22:19:22.703Z,30.77
2023-02-28T22:21:50.130Z,33.27
2023-02-28T22:24:20.103Z,30.43
2023-02-28T22:26:46.482Z,29.33
2023-02-28T22:29:12.858Z,30.30
2023-02-28T22:31:39.442Z,31.90
2023-02-28T22:34:08.830Z,33.63
2023-02-28T22:36:36.382Z,33.87
2023-02-28T22:39:04.756Z,29.77
2023-02-28T22:41:31.458Z,34.37
2023-02-28T22:44:01.529Z,31.93
2023-02-28T22:46:29.916Z,29.77
2023-02-28T22:48:58.296Z,28.60
2023-02-28T22:51:26.262Z,29.77
2023-02-28T22:53:54.282Z,33.20
2023-02-28T22:56:23.819Z,28.17
2023-02-28T22:58:56.253Z,30.60
2023-02-28T23:01:25.037Z,35.77
2023-02-28T23:03:52.113Z,32.10
2023-02-28T23:06:42.562Z,26.23
2023-02-28T23:09:15.373Z,29.73
2023-02-28T23:11:45.145Z,29.20
2023-02-28T23:14:13.241Z,29.83
2023-02-28T23:16:43.573Z,29.17
2023-02-28T23:19:14.346Z,31.07
2023-02-28T23:21:41.617Z,31.17
2023-02-28T23:24:12.233Z,30.20
2023-02-28T23:26:41.733Z,29.70
2023-02-28T23:29:08.823Z,29.57
2023-02-28T23:31:35.874Z,29.57
2023-02-28T23:34:02.445Z,30.40
2023-02-28T23:36:29.485Z,29.73
2023-02-28T23:38:56.196Z,25.73
2023-02-28T23:41:23.836Z,31.50
2023-02-28T23:43:52.417Z,38.67
2023-02-28T23:46:20.561Z,28.97
2023-02-28T23:48:46.982Z,24.50
2023-02-28T23:51:18.472Z,28.33
2023-02-28T23:53:47.285Z,30.97
2023-02-28T23:56:16.570Z,27.90
2023-02-28T23:58:44.513Z,30.20
